To NAV CANADA Home Page Login to a new session Search on AWWS site Feedback and Comments Disclaimer Vers la page française équivalente Tips FAQ What's new on the site To the Forecasts and Observations / NOTAM section To "File a Flight Plan" website Publications and other links Update of the User's profile FIC Telephone Numbers My Weather Data Folder Route Weather Data Regional Weather Data Local Weather Data To the Forecasts and Observations / NOTAM section
Request Generated 10/08/2015 at 20:06:33 UTC . Weather information available at that time is displayed.



METAR CYBX 082000Z 27013G19KT 15SM SCT025 SCT200 10/03 A2958 RMK
SC3CI1 SLP017=
METAR CYBX 081900Z 26017G24KT 15SM FEW025 11/02 A2955 RMK SC2 SLP009=
METAR CYBX 081800Z 26016KT 15SM FEW025 10/03 A2955 RMK SC2 SLP006=

TAF CYBX 081938Z 0820/0908 26015G25KT P6SM FEW025
BECMG 0823/0901 27012G22KT
Your time UTC time
Weather data provided by Environment Canada and NAV CANADA